Agia Marina — SX5375 — position and weather

sailwx.info

Track history (hours):
 
Tides and Currents Weather Stations Pressure Air Temp Water Temp Dewpoint Dewpoint Depression Visibility Wind Speed Wind Dir Waves Ship Positions

Agia Marina

Last reported at 2017-Jan-22 13:17 UTC. Time now 2017-Jan-22 14:22 UTC.
Position N 37°25' E 025°55'.

Length 59 m; draft 2.5 m.

Type: Cargo ship. MMSI: 237042500.

Date/timePositionNaut miles runAvg speedWind from/ knotsBaromVisibWave heightAir tempDewpointWater temp
2017-Jan-22 13:17N 37°25' E 025°55'25 4.3
2017-Jan-22 07:33N 37°12' E 025°29'5 4.9
2017-Jan-22 06:33N 37°09' E 025°24'5 4.7
2017-Jan-22 05:33N 37°05' E 025°20'1 1.2
2017-Jan-22 04:33N 37°04' E 025°21'0 0.0
2017-Jan-22 03:33N 37°04' E 025°21'0 0.0
2017-Jan-22 02:33N 37°04' E 025°21'0 0.0
2017-Jan-22 01:33N 37°04' E 025°21'0 0.0
2017-Jan-22 00:33N 37°04' E 025°21'0 0.0
2017-Jan-21 23:33N 37°04' E 025°21'0 0.0
2017-Jan-21 22:33N 37°04' E 025°21'0 0.0
2017-Jan-21 21:33N 37°04' E 025°21'0 0.0
2017-Jan-21 20:33N 37°04' E 025°21'0 0.0
2017-Jan-21 19:33N 37°04' E 025°21'0 0.0
2017-Jan-21 18:33N 37°04' E 025°21'0 0.0
2017-Jan-21 17:33N 37°04' E 025°21'0 0.0
2017-Jan-21 16:33N 37°04' E 025°21'0 0.0
2017-Jan-21 15:33N 37°04' E 025°21'0 0.0
2017-Jan-21 14:33N 37°04' E 025°21'0 0.0
2017-Jan-21 13:33N 37°04' E 025°21'0 0.0
2017-Jan-21 12:33N 37°04' E 025°21'0 0.0
2017-Jan-21 11:33N 37°04' E 025°21'0 0.0
2017-Jan-21 10:33N 37°04' E 025°21'0 0.0
2017-Jan-21 09:33N 37°04' E 025°21'0 0.0
2017-Jan-21 08:33N 37°04' E 025°21'0 0.0
2017-Jan-21 07:33N 37°04' E 025°21'0 0.0
2017-Jan-21 06:33N 37°04' E 025°21'0 0.0
2017-Jan-21 05:33N 37°04' E 025°21'0 0.0
2017-Jan-21 04:33N 37°04' E 025°21'0 0.0
2017-Jan-21 03:33N 37°04' E 025°21'0 0.0
2017-Jan-21 02:33N 37°04' E 025°21'0 0.0
2017-Jan-21 01:32N 37°04' E 025°21'0 0.0
2017-Jan-21 00:33N 37°04' E 025°21'0 0.0
2017-Jan-20 23:33N 37°04' E 025°21'0 0.0
2017-Jan-20 22:33N 37°04' E 025°21'0 0.0
2017-Jan-20 21:33N 37°04' E 025°21'0 0.0
2017-Jan-20 20:33N 37°04' E 025°21'0 0.0
2017-Jan-20 19:33N 37°04' E 025°21'0 0.0
2017-Jan-20 18:33N 37°04' E 025°21'0 0.0
2017-Jan-20 17:33N 37°04' E 025°21'0 0.0
2017-Jan-20 16:33N 37°04' E 025°21'1 1.0
2017-Jan-20 15:33N 37°05' E 025°20'2 2.1
2017-Jan-20 14:33N 37°06' E 025°22'2 2.1
2017-Jan-20 13:33N 37°08' E 025°20'5 5.3
2017-Jan-20 12:33N 37°10' E 025°14'3 0.1
2017-Jan-19 14:03N 37°11' E 025°11'3 6.9
2017-Jan-19 13:33N 37°14' E 025°13'7 6.7
2017-Jan-19 12:33N 37°20' E 025°16'7 6.6
2017-Jan-19 11:32N 37°27' E 025°18'2 1.6
2017-Jan-19 10:33N 37°28' E 025°20'0 0.0
2017-Jan-19 09:33N 37°28' E 025°20'0 0.0
2017-Jan-19 08:33N 37°28' E 025°20'0 0.0
2017-Jan-19 07:33N 37°28' E 025°20'3 3.2
2017-Jan-19 06:33N 37°29' E 025°16'6 6.4
2017-Jan-19 05:33N 37°30' E 025°08'15 6.6
2017-Jan-19 03:20N 37°32' E 024°50'50 5.7
2017-Jan-18 18:32N 37°38' E 023°47'5 5.0
2017-Jan-18 17:33N 37°41' E 023°42'6 5.8
2017-Jan-18 16:33N 37°46' E 023°39'6 6.1
2017-Jan-18 15:33N 37°52' E 023°36'6 5.7
2017-Jan-18 14:33N 37°57' E 023°33'5 4.9
2017-Jan-18 13:33N 38°02' E 023°36'0 0.0
2017-Jan-18 12:33N 38°02' E 023°36'0 0.0
2017-Jan-18 11:33N 38°02' E 023°36'0 0.0
2017-Jan-18 10:33N 38°02' E 023°36'0 0.0
2017-Jan-18 09:33N 38°02' E 023°36'0 0.0
2017-Jan-18 08:33N 38°02' E 023°36'0 0.0
2017-Jan-18 07:33N 38°02' E 023°36'0 0.0
2017-Jan-18 06:33N 38°02' E 023°36'0 0.0
2017-Jan-18 05:33N 38°02' E 023°36'0 0.0
2017-Jan-18 04:33N 38°02' E 023°36'0 0.0
2017-Jan-18 03:33N 38°02' E 023°36'0 0.0
2017-Jan-18 02:33N 38°02' E 023°36'0 0.0
2017-Jan-18 01:33N 38°02' E 023°36'0 0.0
2017-Jan-18 00:33N 38°02' E 023°36'0 0.0
2017-Jan-17 23:33N 38°02' E 023°36'0 0.0
2017-Jan-17 22:33N 38°02' E 023°36'0 0.0
2017-Jan-17 21:34N 38°02' E 023°36'0 0.0
2017-Jan-17 20:33N 38°02' E 023°36'0 0.0
2017-Jan-17 19:33N 38°02' E 023°36'0 0.0
2017-Jan-17 18:33N 38°02' E 023°36'0 0.0
2017-Jan-17 17:33N 38°02' E 023°36'0 0.0
2017-Jan-17 16:33N 38°02' E 023°36'0 0.0
2017-Jan-17 15:33N 38°02' E 023°36'0 0.0
2017-Jan-17 14:33N 38°02' E 023°36'0 0.0
2017-Jan-17 13:33N 38°02' E 023°36'0 0.0
2017-Jan-17 12:33N 38°02' E 023°36'0 0.0
2017-Jan-17 11:33N 38°02' E 023°36'0 0.0
2017-Jan-17 10:33N 38°02' E 023°36'0 0.0
2017-Jan-17 09:33N 38°02' E 023°36'0 0.0
2017-Jan-17 08:33N 38°02' E 023°36'0 0.0
2017-Jan-17 07:33N 38°02' E 023°36'0 0.0
2017-Jan-17 06:33N 38°02' E 023°36'0 0.0
2017-Jan-17 05:33N 38°02' E 023°36'0 0.0
2017-Jan-17 04:33N 38°02' E 023°36'0 0.0
2017-Jan-17 03:33N 38°02' E 023°36'0 0.0
2017-Jan-17 02:33N 38°02' E 023°36'0 0.0
2017-Jan-17 01:33N 38°02' E 023°36'0 0.0
2017-Jan-17 00:33N 38°02' E 023°36'0 0.0
2017-Jan-16 23:33N 38°02' E 023°36'0 0.0
2017-Jan-16 22:33N 38°02' E 023°36'0 0.0
2017-Jan-16 21:33N 38°02' E 023°36'0 0.0
2017-Jan-16 20:33N 38°02' E 023°36'0 0.0
2017-Jan-16 19:33N 38°02' E 023°36'0 0.0
2017-Jan-16 18:33N 38°02' E 023°36'0 0.0
2017-Jan-16 17:33N 38°02' E 023°36'0 0.0
2017-Jan-16 16:33N 38°02' E 023°36'0 0.0
2017-Jan-16 15:33N 38°02' E 023°36'0 0.0
2017-Jan-16 14:33N 38°02' E 023°36'0 0.0
2017-Jan-16 13:33N 38°02' E 023°36'0 0.0
2017-Jan-16 12:33N 38°02' E 023°36'0 0.0
2017-Jan-16 11:33N 38°02' E 023°36'0 0.0
2017-Jan-16 10:33N 38°02' E 023°36'0 0.0
2017-Jan-16 09:33N 38°02' E 023°36'0 0.0
2017-Jan-16 08:33N 38°02' E 023°36'0 0.0
2017-Jan-16 07:33N 38°02' E 023°36'0 0.0
2017-Jan-16 06:33N 38°02' E 023°36'0 0.0
2017-Jan-16 05:33N 38°02' E 023°36'0 0.0
2017-Jan-16 04:33N 38°02' E 023°36'0 0.0
2017-Jan-16 03:33N 38°02' E 023°36'0 0.0
2017-Jan-16 02:33N 38°02' E 023°36'0 0.0
2017-Jan-16 01:33N 38°02' E 023°36'0 0.0
2017-Jan-16 00:34N 38°02' E 023°36'0 0.0
2017-Jan-15 23:33N 38°02' E 023°36'0 0.0
2017-Jan-15 22:33N 38°02' E 023°36'0 0.0
2017-Jan-15 21:33N 38°02' E 023°36'0 0.0
2017-Jan-15 20:33N 38°02' E 023°36'0 0.0
2017-Jan-15 19:33N 38°02' E 023°36'0 0.0
2017-Jan-15 18:33N 38°02' E 023°36'0 0.0
2017-Jan-15 17:33N 38°02' E 023°36'0 0.0
2017-Jan-15 16:33N 38°02' E 023°36'0 0.0
2017-Jan-15 15:33N 38°02' E 023°36'0 0.0
2017-Jan-15 14:33N 38°02' E 023°36'0 0.0
2017-Jan-15 13:33N 38°02' E 023°36'0 0.0
2017-Jan-15 12:33N 38°02' E 023°36'0 0.0
2017-Jan-15 11:33N 38°02' E 023°36'0 0.0
2017-Jan-15 10:33N 38°02' E 023°36'0 0.0
2017-Jan-15 09:33N 38°02' E 023°36'0 0.0
2017-Jan-15 08:33N 38°02' E 023°36'0 0.0
2017-Jan-15 07:33N 38°02' E 023°36'0 0.0
2017-Jan-15 06:33N 38°02' E 023°36'0 0.0
2017-Jan-15 05:33N 38°02' E 023°36'0 0.0
2017-Jan-15 04:33N 38°02' E 023°36'0 0.0
2017-Jan-15 03:33N 38°02' E 023°36'0 0.0
2017-Jan-15 02:33N 38°02' E 023°36'0 0.0
2017-Jan-15 01:33N 38°02' E 023°36'0 0.0
2017-Jan-15 00:33N 38°02' E 023°36'0 0.0
2017-Jan-14 23:33N 38°02' E 023°36'0 0.0
2017-Jan-14 22:33N 38°02' E 023°36'0 0.0
2017-Jan-14 21:33N 38°02' E 023°36'0 0.0
2017-Jan-14 20:33N 38°02' E 023°36'0 0.0
2017-Jan-14 19:33N 38°02' E 023°36'0 0.0
2017-Jan-14 18:33N 38°02' E 023°36'0 0.0
2017-Jan-14 17:33N 38°02' E 023°36'0 0.0
2017-Jan-14 16:33N 38°02' E 023°36'0 0.0
2017-Jan-14 15:33N 38°02' E 023°36'0 0.0
2017-Jan-14 14:33N 38°02' E 023°36'0 0.0
2017-Jan-14 13:33N 38°02' E 023°36'0 0.0
2017-Jan-14 12:33N 38°02' E 023°36'0 0.0
2017-Jan-14 11:33N 38°02' E 023°36'0 0.0
2017-Jan-14 10:33N 38°02' E 023°36'0 0.0
2017-Jan-14 09:33N 38°02' E 023°36'0 0.0
2017-Jan-14 08:33N 38°02' E 023°36'0 0.0
2017-Jan-14 07:33N 38°02' E 023°36'0 0.0
2017-Jan-14 06:33N 38°02' E 023°36'0 0.0
2017-Jan-14 05:33N 38°02' E 023°36'0 0.0
2017-Jan-14 04:33N 38°02' E 023°36'0 0.0
2017-Jan-14 03:33N 38°02' E 023°36'0 0.0
2017-Jan-13 23:33N 38°02' E 023°36'0 0.0
2017-Jan-13 22:33N 38°02' E 023°36'0 0.0
2017-Jan-13 21:33N 38°02' E 023°36'0 0.0
2017-Jan-13 20:33N 38°02' E 023°36'0 0.0
2017-Jan-13 19:33N 38°02' E 023°36'0 0.0
2017-Jan-13 18:33N 38°02' E 023°36'0 0.0
2017-Jan-13 17:33N 38°02' E 023°36'0 0.0
2017-Jan-13 16:33N 38°02' E 023°36'0 0.0
2017-Jan-13 15:33N 38°02' E 023°36'0 0.0
2017-Jan-13 14:33N 38°02' E 023°36'0 0.0
2017-Jan-13 13:33N 38°02' E 023°36'0 0.0
2017-Jan-13 12:33N 38°02' E 023°36'0 0.0
2017-Jan-13 11:33N 38°02' E 023°36'0 0.0
2017-Jan-13 10:33N 38°02' E 023°36'0 0.0
2017-Jan-13 09:33N 38°02' E 023°36'0 0.0
2017-Jan-13 08:33N 38°02' E 023°36'0 0.0
2017-Jan-13 07:33N 38°02' E 023°36'0 0.0
2017-Jan-13 06:33N 38°02' E 023°36'0 0.0
2017-Jan-13 05:33N 38°02' E 023°36'0 0.0
2017-Jan-13 04:33N 38°02' E 023°36'0 0.0
2017-Jan-13 03:33N 38°02' E 023°36'0 0.0
2017-Jan-13 02:33N 38°02' E 023°36'0 0.0
2017-Jan-13 01:33N 38°02' E 023°36'0 0.0
2017-Jan-13 00:34N 38°02' E 023°36'0 0.0
2017-Jan-12 23:33N 38°02' E 023°36'0 0.0
2017-Jan-12 22:33N 38°02' E 023°36'0 0.0
2017-Jan-12 21:33N 38°02' E 023°36'0 0.0
2017-Jan-12 20:33N 38°02' E 023°36'0 0.0
2017-Jan-12 19:33N 38°02' E 023°36'0 0.0
2017-Jan-12 18:33N 38°02' E 023°36'0 0.0
2017-Jan-12 17:33N 38°02' E 023°36'0 0.0
2017-Jan-12 16:33N 38°02' E 023°36'0 0.0
2017-Jan-12 15:33N 38°02' E 023°36'0 0.0
2017-Jan-12 14:33N 38°02' E 023°36'0 0.0
2017-Jan-12 13:33N 38°02' E 023°36'  
Track history (hours):
 
Tides and Currents Weather Stations Pressure Air Temp Water Temp Dewpoint Dewpoint Depression Visibility Wind Speed Wind Dir Waves Ship Positions

Agia Marina

Last reported at 2017-Jan-22 13:17 UTC. Time now 2017-Jan-22 14:22 UTC.
Position N 37°25' E 025°55'.

Length 59 m; draft 2.5 m.

Type: Cargo ship. MMSI: 237042500.

Date/timePositionNaut miles runAvg speedWind from/ knotsBaromVisibWave heightAir tempDewpointWater temp
2017-Jan-22 13:17N 37°25' E 025°55'25 4.3
2017-Jan-22 07:33N 37°12' E 025°29'5 4.9
2017-Jan-22 06:33N 37°09' E 025°24'5 4.7
2017-Jan-22 05:33N 37°05' E 025°20'1 1.2
2017-Jan-22 04:33N 37°04' E 025°21'0 0.0
2017-Jan-22 03:33N 37°04' E 025°21'0 0.0
2017-Jan-22 02:33N 37°04' E 025°21'0 0.0
2017-Jan-22 01:33N 37°04' E 025°21'0 0.0
2017-Jan-22 00:33N 37°04' E 025°21'0 0.0
2017-Jan-21 23:33N 37°04' E 025°21'0 0.0
2017-Jan-21 22:33N 37°04' E 025°21'0 0.0
2017-Jan-21 21:33N 37°04' E 025°21'0 0.0
2017-Jan-21 20:33N 37°04' E 025°21'0 0.0
2017-Jan-21 19:33N 37°04' E 025°21'0 0.0
2017-Jan-21 18:33N 37°04' E 025°21'0 0.0
2017-Jan-21 17:33N 37°04' E 025°21'0 0.0
2017-Jan-21 16:33N 37°04' E 025°21'0 0.0
2017-Jan-21 15:33N 37°04' E 025°21'0 0.0
2017-Jan-21 14:33N 37°04' E 025°21'0 0.0
2017-Jan-21 13:33N 37°04' E 025°21'0 0.0
2017-Jan-21 12:33N 37°04' E 025°21'0 0.0
2017-Jan-21 11:33N 37°04' E 025°21'0 0.0
2017-Jan-21 10:33N 37°04' E 025°21'0 0.0
2017-Jan-21 09:33N 37°04' E 025°21'0 0.0
2017-Jan-21 08:33N 37°04' E 025°21'0 0.0
2017-Jan-21 07:33N 37°04' E 025°21'0 0.0
2017-Jan-21 06:33N 37°04' E 025°21'0 0.0
2017-Jan-21 05:33N 37°04' E 025°21'0 0.0
2017-Jan-21 04:33N 37°04' E 025°21'0 0.0
2017-Jan-21 03:33N 37°04' E 025°21'0 0.0
2017-Jan-21 02:33N 37°04' E 025°21'0 0.0
2017-Jan-21 01:32N 37°04' E 025°21'0 0.0
2017-Jan-21 00:33N 37°04' E 025°21'0 0.0
2017-Jan-20 23:33N 37°04' E 025°21'0 0.0
2017-Jan-20 22:33N 37°04' E 025°21'0 0.0
2017-Jan-20 21:33N 37°04' E 025°21'0 0.0
2017-Jan-20 20:33N 37°04' E 025°21'0 0.0
2017-Jan-20 19:33N 37°04' E 025°21'0 0.0
2017-Jan-20 18:33N 37°04' E 025°21'0 0.0
2017-Jan-20 17:33N 37°04' E 025°21'0 0.0
2017-Jan-20 16:33N 37°04' E 025°21'1 1.0
2017-Jan-20 15:33N 37°05' E 025°20'2 2.1
2017-Jan-20 14:33N 37°06' E 025°22'2 2.1
2017-Jan-20 13:33N 37°08' E 025°20'5 5.3
2017-Jan-20 12:33N 37°10' E 025°14'3 0.1
2017-Jan-19 14:03N 37°11' E 025°11'3 6.9
2017-Jan-19 13:33N 37°14' E 025°13'7 6.7
2017-Jan-19 12:33N 37°20' E 025°16'7 6.6
2017-Jan-19 11:32N 37°27' E 025°18'2 1.6
2017-Jan-19 10:33N 37°28' E 025°20'0 0.0
2017-Jan-19 09:33N 37°28' E 025°20'0 0.0
2017-Jan-19 08:33N 37°28' E 025°20'0 0.0
2017-Jan-19 07:33N 37°28' E 025°20'3 3.2
2017-Jan-19 06:33N 37°29' E 025°16'6 6.4
2017-Jan-19 05:33N 37°30' E 025°08'15 6.6
2017-Jan-19 03:20N 37°32' E 024°50'50 5.7
2017-Jan-18 18:32N 37°38' E 023°47'5 5.0
2017-Jan-18 17:33N 37°41' E 023°42'6 5.8
2017-Jan-18 16:33N 37°46' E 023°39'6 6.1
2017-Jan-18 15:33N 37°52' E 023°36'6 5.7
2017-Jan-18 14:33N 37°57' E 023°33'5 4.9
2017-Jan-18 13:33N 38°02' E 023°36'0 0.0
2017-Jan-18 12:33N 38°02' E 023°36'0 0.0
2017-Jan-18 11:33N 38°02' E 023°36'0 0.0
2017-Jan-18 10:33N 38°02' E 023°36'0 0.0
2017-Jan-18 09:33N 38°02' E 023°36'0 0.0
2017-Jan-18 08:33N 38°02' E 023°36'0 0.0
2017-Jan-18 07:33N 38°02' E 023°36'0 0.0
2017-Jan-18 06:33N 38°02' E 023°36'0 0.0
2017-Jan-18 05:33N 38°02' E 023°36'0 0.0
2017-Jan-18 04:33N 38°02' E 023°36'0 0.0
2017-Jan-18 03:33N 38°02' E 023°36'0 0.0
2017-Jan-18 02:33N 38°02' E 023°36'0 0.0
2017-Jan-18 01:33N 38°02' E 023°36'0 0.0
2017-Jan-18 00:33N 38°02' E 023°36'0 0.0
2017-Jan-17 23:33N 38°02' E 023°36'0 0.0
2017-Jan-17 22:33N 38°02' E 023°36'0 0.0
2017-Jan-17 21:34N 38°02' E 023°36'0 0.0
2017-Jan-17 20:33N 38°02' E 023°36'0 0.0
2017-Jan-17 19:33N 38°02' E 023°36'0 0.0
2017-Jan-17 18:33N 38°02' E 023°36'0 0.0
2017-Jan-17 17:33N 38°02' E 023°36'0 0.0
2017-Jan-17 16:33N 38°02' E 023°36'0 0.0
2017-Jan-17 15:33N 38°02' E 023°36'0 0.0
2017-Jan-17 14:33N 38°02' E 023°36'0 0.0
2017-Jan-17 13:33N 38°02' E 023°36'0 0.0
2017-Jan-17 12:33N 38°02' E 023°36'0 0.0
2017-Jan-17 11:33N 38°02' E 023°36'0 0.0
2017-Jan-17 10:33N 38°02' E 023°36'0 0.0
2017-Jan-17 09:33N 38°02' E 023°36'0 0.0
2017-Jan-17 08:33N 38°02' E 023°36'0 0.0
2017-Jan-17 07:33N 38°02' E 023°36'0 0.0
2017-Jan-17 06:33N 38°02' E 023°36'0 0.0
2017-Jan-17 05:33N 38°02' E 023°36'0 0.0
2017-Jan-17 04:33N 38°02' E 023°36'0 0.0
2017-Jan-17 03:33N 38°02' E 023°36'0 0.0
2017-Jan-17 02:33N 38°02' E 023°36'0 0.0
2017-Jan-17 01:33N 38°02' E 023°36'0 0.0
2017-Jan-17 00:33N 38°02' E 023°36'0 0.0
2017-Jan-16 23:33N 38°02' E 023°36'0 0.0
2017-Jan-16 22:33N 38°02' E 023°36'0 0.0
2017-Jan-16 21:33N 38°02' E 023°36'0 0.0
2017-Jan-16 20:33N 38°02' E 023°36'0 0.0
2017-Jan-16 19:33N 38°02' E 023°36'0 0.0
2017-Jan-16 18:33N 38°02' E 023°36'0 0.0
2017-Jan-16 17:33N 38°02' E 023°36'0 0.0
2017-Jan-16 16:33N 38°02' E 023°36'0 0.0
2017-Jan-16 15:33N 38°02' E 023°36'0 0.0
2017-Jan-16 14:33N 38°02' E 023°36'0 0.0
2017-Jan-16 13:33N 38°02' E 023°36'0 0.0
2017-Jan-16 12:33N 38°02' E 023°36'0 0.0
2017-Jan-16 11:33N 38°02' E 023°36'0 0.0
2017-Jan-16 10:33N 38°02' E 023°36'0 0.0
2017-Jan-16 09:33N 38°02' E 023°36'0 0.0
2017-Jan-16 08:33N 38°02' E 023°36'0 0.0
2017-Jan-16 07:33N 38°02' E 023°36'0 0.0
2017-Jan-16 06:33N 38°02' E 023°36'0 0.0
2017-Jan-16 05:33N 38°02' E 023°36'0 0.0
2017-Jan-16 04:33N 38°02' E 023°36'0 0.0
2017-Jan-16 03:33N 38°02' E 023°36'0 0.0
2017-Jan-16 02:33N 38°02' E 023°36'0 0.0
2017-Jan-16 01:33N 38°02' E 023°36'0 0.0
2017-Jan-16 00:34N 38°02' E 023°36'0 0.0
2017-Jan-15 23:33N 38°02' E 023°36'0 0.0
2017-Jan-15 22:33N 38°02' E 023°36'0 0.0
2017-Jan-15 21:33N 38°02' E 023°36'0 0.0
2017-Jan-15 20:33N 38°02' E 023°36'0 0.0
2017-Jan-15 19:33N 38°02' E 023°36'0 0.0
2017-Jan-15 18:33N 38°02' E 023°36'0 0.0
2017-Jan-15 17:33N 38°02' E 023°36'0 0.0
2017-Jan-15 16:33N 38°02' E 023°36'0 0.0
2017-Jan-15 15:33N 38°02' E 023°36'0 0.0
2017-Jan-15 14:33N 38°02' E 023°36'0 0.0
2017-Jan-15 13:33N 38°02' E 023°36'0 0.0
2017-Jan-15 12:33N 38°02' E 023°36'0 0.0
2017-Jan-15 11:33N 38°02' E 023°36'0 0.0
2017-Jan-15 10:33N 38°02' E 023°36'0 0.0
2017-Jan-15 09:33N 38°02' E 023°36'0 0.0
2017-Jan-15 08:33N 38°02' E 023°36'0 0.0
2017-Jan-15 07:33N 38°02' E 023°36'0 0.0
2017-Jan-15 06:33N 38°02' E 023°36'0 0.0
2017-Jan-15 05:33N 38°02' E 023°36'0 0.0
2017-Jan-15 04:33N 38°02' E 023°36'0 0.0
2017-Jan-15 03:33N 38°02' E 023°36'0 0.0
2017-Jan-15 02:33N 38°02' E 023°36'0 0.0
2017-Jan-15 01:33N 38°02' E 023°36'0 0.0
2017-Jan-15 00:33N 38°02' E 023°36'0 0.0
2017-Jan-14 23:33N 38°02' E 023°36'0 0.0
2017-Jan-14 22:33N 38°02' E 023°36'0 0.0
2017-Jan-14 21:33N 38°02' E 023°36'0 0.0
2017-Jan-14 20:33N 38°02' E 023°36'0 0.0
2017-Jan-14 19:33N 38°02' E 023°36'0 0.0
2017-Jan-14 18:33N 38°02' E 023°36'0 0.0
2017-Jan-14 17:33N 38°02' E 023°36'0 0.0
2017-Jan-14 16:33N 38°02' E 023°36'0 0.0
2017-Jan-14 15:33N 38°02' E 023°36'0 0.0
2017-Jan-14 14:33N 38°02' E 023°36'0 0.0
2017-Jan-14 13:33N 38°02' E 023°36'0 0.0
2017-Jan-14 12:33N 38°02' E 023°36'0 0.0
2017-Jan-14 11:33N 38°02' E 023°36'0 0.0
2017-Jan-14 10:33N 38°02' E 023°36'0 0.0
2017-Jan-14 09:33N 38°02' E 023°36'0 0.0
2017-Jan-14 08:33N 38°02' E 023°36'0 0.0
2017-Jan-14 07:33N 38°02' E 023°36'0 0.0
2017-Jan-14 06:33N 38°02' E 023°36'0 0.0
2017-Jan-14 05:33N 38°02' E 023°36'0 0.0
2017-Jan-14 04:33N 38°02' E 023°36'0 0.0
2017-Jan-14 03:33N 38°02' E 023°36'0 0.0
2017-Jan-13 23:33N 38°02' E 023°36'0 0.0
2017-Jan-13 22:33N 38°02' E 023°36'0 0.0
2017-Jan-13 21:33N 38°02' E 023°36'0 0.0
2017-Jan-13 20:33N 38°02' E 023°36'0 0.0
2017-Jan-13 19:33N 38°02' E 023°36'0 0.0
2017-Jan-13 18:33N 38°02' E 023°36'0 0.0
2017-Jan-13 17:33N 38°02' E 023°36'0 0.0
2017-Jan-13 16:33N 38°02' E 023°36'0 0.0
2017-Jan-13 15:33N 38°02' E 023°36'0 0.0
2017-Jan-13 14:33N 38°02' E 023°36'0 0.0
2017-Jan-13 13:33N 38°02' E 023°36'0 0.0
2017-Jan-13 12:33N 38°02' E 023°36'0 0.0
2017-Jan-13 11:33N 38°02' E 023°36'0 0.0
2017-Jan-13 10:33N 38°02' E 023°36'0 0.0
2017-Jan-13 09:33N 38°02' E 023°36'0 0.0
2017-Jan-13 08:33N 38°02' E 023°36'0 0.0
2017-Jan-13 07:33N 38°02' E 023°36'0 0.0
2017-Jan-13 06:33N 38°02' E 023°36'0 0.0
2017-Jan-13 05:33N 38°02' E 023°36'0 0.0
2017-Jan-13 04:33N 38°02' E 023°36'0 0.0
2017-Jan-13 03:33N 38°02' E 023°36'0 0.0
2017-Jan-13 02:33N 38°02' E 023°36'0 0.0
2017-Jan-13 01:33N 38°02' E 023°36'0 0.0
2017-Jan-13 00:34N 38°02' E 023°36'0 0.0
2017-Jan-12 23:33N 38°02' E 023°36'0 0.0
2017-Jan-12 22:33N 38°02' E 023°36'0 0.0
2017-Jan-12 21:33N 38°02' E 023°36'0 0.0
2017-Jan-12 20:33N 38°02' E 023°36'0 0.0
2017-Jan-12 19:33N 38°02' E 023°36'0 0.0
2017-Jan-12 18:33N 38°02' E 023°36'0 0.0
2017-Jan-12 17:33N 38°02' E 023°36'0 0.0
2017-Jan-12 16:33N 38°02' E 023°36'0 0.0
2017-Jan-12 15:33N 38°02' E 023°36'0 0.0
2017-Jan-12 14:33N 38°02' E 023°36'0 0.0
2017-Jan-12 13:33N 38°02' E 023°36'  

Dump ship's entire track history